Zhangshu, China
Current Conditions -  °F | °C
As of 3:00 AM on Saturday 29 Nov 2014 (Local Time) from ZGHA Reporting Station
Light Rain Light Rain  
Wind Chill: 52°   Ceiling: 300
Heat Index: 52°   Visibility: 0.56mi
Dew Point: 50°   Wind: 7mph
Humidity: 94%   Direction: 330°NNW
Pressure: 29.97"   Gusts: NA
Location:  28.08°N, 115.52°E
Report Text: ZGHA 281900Z 33003MPS 0900 R36/1300U -RA FG SCT002BKN003OVC050 11/10 Q1015 NOSIG
Loading
Personal Weather Stations






























Interactive Weather Map New forecast layout! Learn more

10-Day Weather Forecast

Advertisements
Track Severe Weather on mobile